Terminal Aerodrome Forecast
Issued by NWS Amarillo, TX

Home | Current Version | Previous Version | Text Only | Print | Product List | Glossary On
Versions: 1 2 3 4 5 6 7 8 9 10 11 12 13 14 15
000
FTUS44 KAMA 170621 AAB
TAFAMA
TAF AMD
KAMA 170621Z 1706/1806 18012KT P6SM SCT150
      TEMPO 1706/1710 OVC006
     FM171000 33013KT P6SM SCT150
     FM180100 07005KT P6SM SCT150=

USA.gov is the U.S. government's official web portal to all federal, state and local government web resources and services.